sensor_id;sensor_type;location;lat;lon;timestamp;P1;durP1;ratioP1;P2;durP2;ratioP2
8337;SDS011;4206;48.634;9.516;2023-04-16T00:01:49;30.20;;;16.70;;
8337;SDS011;4206;48.634;9.516;2023-04-16T00:04:16;26.57;;;15.60;;
8337;SDS011;4206;48.634;9.516;2023-04-16T00:06:43;27.63;;;14.90;;
8337;SDS011;4206;48.634;9.516;2023-04-16T00:09:11;24.93;;;15.17;;
8337;SDS011;4206;48.634;9.516;2023-04-16T00:11:37;29.57;;;16.40;;
8337;SDS011;4206;48.634;9.516;2023-04-16T00:14:04;28.37;;;14.73;;
8337;SDS011;4206;48.634;9.516;2023-04-16T00:16:31;29.97;;;14.27;;
8337;SDS011;4206;48.634;9.516;2023-04-16T00:18:58;29.27;;;15.80;;
8337;SDS011;4206;48.634;9.516;2023-04-16T00:21:25;27.37;;;15.00;;
8337;SDS011;4206;48.634;9.516;2023-04-16T00:23:52;29.27;;;15.77;;
8337;SDS011;4206;48.634;9.516;2023-04-16T00:26:18;26.10;;;14.20;;
8337;SDS011;4206;48.634;9.516;2023-04-16T00:28:45;35.93;;;17.30;;
8337;SDS011;4206;48.634;9.516;2023-04-16T00:31:12;33.37;;;16.20;;
8337;SDS011;4206;48.634;9.516;2023-04-16T00:33:39;27.60;;;15.10;;
8337;SDS011;4206;48.634;9.516;2023-04-16T00:36:06;27.57;;;15.40;;
8337;SDS011;4206;48.634;9.516;2023-04-16T00:38:34;31.47;;;15.57;;
8337;SDS011;4206;48.634;9.516;2023-04-16T00:41:02;32.40;;;15.67;;
8337;SDS011;4206;48.634;9.516;2023-04-16T00:43:28;25.87;;;13.20;;
8337;SDS011;4206;48.634;9.516;2023-04-16T00:45:56;30.27;;;14.57;;
8337;SDS011;4206;48.634;9.516;2023-04-16T00:48:24;29.17;;;15.10;;
8337;SDS011;4206;48.634;9.516;2023-04-16T00:50:53;29.90;;;15.13;;
8337;SDS011;4206;48.634;9.516;2023-04-16T00:53:20;30.70;;;15.03;;
8337;SDS011;4206;48.634;9.516;2023-04-16T00:55:47;29.27;;;16.90;;
8337;SDS011;4206;48.634;9.516;2023-04-16T00:58:15;29.30;;;14.20;;
8337;SDS011;4206;48.634;9.516;2023-04-16T01:00:43;26.30;;;15.43;;
8337;SDS011;4206;48.634;9.516;2023-04-16T01:03:10;28.77;;;16.00;;
8337;SDS011;4206;48.634;9.516;2023-04-16T01:05:39;32.30;;;16.20;;
8337;SDS011;4206;48.634;9.516;2023-04-16T01:08:06;36.90;;;16.80;;
8337;SDS011;4206;48.634;9.516;2023-04-16T01:10:42;29.97;;;16.90;;
8337;SDS011;4206;48.634;9.516;2023-04-16T01:13:08;29.83;;;14.57;;
8337;SDS011;4206;48.634;9.516;2023-04-16T01:15:36;29.47;;;16.70;;
8337;SDS011;4206;48.634;9.516;2023-04-16T01:20:47;29.97;;;16.07;;
8337;SDS011;4206;48.634;9.516;2023-04-16T01:23:14;27.60;;;15.70;;
8337;SDS011;4206;48.634;9.516;2023-04-16T01:25:44;32.47;;;16.20;;
8337;SDS011;4206;48.634;9.516;2023-04-16T01:28:11;31.60;;;15.13;;
8337;SDS011;4206;48.634;9.516;2023-04-16T01:30:38;31.77;;;15.20;;
8337;SDS011;4206;48.634;9.516;2023-04-16T01:33:05;31.57;;;16.60;;
8337;SDS011;4206;48.634;9.516;2023-04-16T01:35:33;31.23;;;16.90;;
8337;SDS011;4206;48.634;9.516;2023-04-16T01:38:00;26.17;;;15.63;;
8337;SDS011;4206;48.634;9.516;2023-04-16T01:40:27;31.17;;;16.50;;
8337;SDS011;4206;48.634;9.516;2023-04-16T01:42:54;27.57;;;15.13;;
8337;SDS011;4206;48.634;9.516;2023-04-16T01:45:21;34.57;;;16.97;;
8337;SDS011;4206;48.634;9.516;2023-04-16T01:47:49;31.47;;;16.30;;
8337;SDS011;4206;48.634;9.516;2023-04-16T01:50:17;39.00;;;17.40;;
8337;SDS011;4206;48.634;9.516;2023-04-16T01:52:45;41.83;;;18.07;;
8337;SDS011;4206;48.634;9.516;2023-04-16T01:55:12;32.70;;;17.23;;
8337;SDS011;4206;48.634;9.516;2023-04-16T01:57:39;33.63;;;16.53;;
8337;SDS011;4206;48.634;9.516;2023-04-16T02:00:06;35.03;;;17.00;;
8337;SDS011;4206;48.634;9.516;2023-04-16T02:02:34;33.70;;;15.43;;
8337;SDS011;4206;48.634;9.516;2023-04-16T02:05:01;30.67;;;16.43;;
8337;SDS011;4206;48.634;9.516;2023-04-16T02:07:28;29.03;;;15.13;;
8337;SDS011;4206;48.634;9.516;2023-04-16T02:09:56;34.67;;;17.33;;
8337;SDS011;4206;48.634;9.516;2023-04-16T02:12:24;28.53;;;16.27;;
8337;SDS011;4206;48.634;9.516;2023-04-16T02:14:51;29.50;;;17.03;;
8337;SDS011;4206;48.634;9.516;2023-04-16T02:17:19;27.97;;;15.70;;
8337;SDS011;4206;48.634;9.516;2023-04-16T02:19:46;33.77;;;16.73;;
8337;SDS011;4206;48.634;9.516;2023-04-16T02:22:13;30.37;;;16.17;;
8337;SDS011;4206;48.634;9.516;2023-04-16T02:24:40;31.60;;;17.23;;
8337;SDS011;4206;48.634;9.516;2023-04-16T02:27:07;31.57;;;16.90;;
8337;SDS011;4206;48.634;9.516;2023-04-16T02:29:34;37.03;;;17.07;;
8337;SDS011;4206;48.634;9.516;2023-04-16T02:32:01;29.33;;;16.50;;
8337;SDS011;4206;48.634;9.516;2023-04-16T02:34:27;35.43;;;18.37;;
8337;SDS011;4206;48.634;9.516;2023-04-16T02:36:54;35.97;;;18.00;;
8337;SDS011;4206;48.634;9.516;2023-04-16T02:39:23;38.03;;;18.43;;
8337;SDS011;4206;48.634;9.516;2023-04-16T02:41:50;30.40;;;15.33;;
8337;SDS011;4206;48.634;9.516;2023-04-16T02:44:17;29.87;;;16.10;;
8337;SDS011;4206;48.634;9.516;2023-04-16T02:46:44;29.60;;;15.70;;
8337;SDS011;4206;48.634;9.516;2023-04-16T02:49:11;32.50;;;15.13;;
8337;SDS011;4206;48.634;9.516;2023-04-16T02:51:38;36.87;;;15.87;;
8337;SDS011;4206;48.634;9.516;2023-04-16T02:54:05;33.87;;;16.47;;
8337;SDS011;4206;48.634;9.516;2023-04-16T02:56:32;27.00;;;14.10;;
8337;SDS011;4206;48.634;9.516;2023-04-16T02:58:59;26.67;;;14.00;;
8337;SDS011;4206;48.634;9.516;2023-04-16T04:02:01;27.10;;;13.93;;
8337;SDS011;4206;48.634;9.516;2023-04-16T04:04:28;29.87;;;13.80;;
8337;SDS011;4206;48.634;9.516;2023-04-16T04:06:55;31.87;;;12.90;;
8337;SDS011;4206;48.634;9.516;2023-04-16T04:09:21;27.47;;;14.17;;
8337;SDS011;4206;48.634;9.516;2023-04-16T04:11:49;27.90;;;14.23;;
8337;SDS011;4206;48.634;9.516;2023-04-16T04:14:15;28.43;;;14.20;;
8337;SDS011;4206;48.634;9.516;2023-04-16T04:16:42;27.53;;;13.63;;
8337;SDS011;4206;48.634;9.516;2023-04-16T04:19:09;24.80;;;13.80;;
8337;SDS011;4206;48.634;9.516;2023-04-16T04:21:37;25.73;;;13.30;;
8337;SDS011;4206;48.634;9.516;2023-04-16T04:24:04;29.83;;;14.23;;
8337;SDS011;4206;48.634;9.516;2023-04-16T04:26:31;29.27;;;14.23;;
8337;SDS011;4206;48.634;9.516;2023-04-16T04:28:57;28.40;;;14.93;;
8337;SDS011;4206;48.634;9.516;2023-04-16T04:31:24;24.83;;;13.10;;
8337;SDS011;4206;48.634;9.516;2023-04-16T04:33:51;25.80;;;12.40;;
8337;SDS011;4206;48.634;9.516;2023-04-16T04:36:18;28.07;;;12.80;;
8337;SDS011;4206;48.634;9.516;2023-04-16T04:38:45;25.73;;;13.53;;
8337;SDS011;4206;48.634;9.516;2023-04-16T04:41:12;29.60;;;14.23;;
8337;SDS011;4206;48.634;9.516;2023-04-16T04:43:39;30.57;;;14.47;;
8337;SDS011;4206;48.634;9.516;2023-04-16T04:46:06;25.77;;;12.70;;
8337;SDS011;4206;48.634;9.516;2023-04-16T04:48:33;24.60;;;12.60;;
8337;SDS011;4206;48.634;9.516;2023-04-16T04:51:00;29.07;;;13.03;;
8337;SDS011;4206;48.634;9.516;2023-04-16T04:53:30;26.20;;;11.90;;
8337;SDS011;4206;48.634;9.516;2023-04-16T04:55:57;26.37;;;12.70;;
8337;SDS011;4206;48.634;9.516;2023-04-16T04:58:37;39.57;;;15.67;;
8337;SDS011;4206;48.634;9.516;2023-04-16T05:01:03;35.90;;;15.53;;
8337;SDS011;4206;48.634;9.516;2023-04-16T05:03:31;25.40;;;12.50;;
8337;SDS011;4206;48.634;9.516;2023-04-16T05:05:58;33.60;;;15.77;;
8337;SDS011;4206;48.634;9.516;2023-04-16T05:08:25;23.63;;;13.00;;
8337;SDS011;4206;48.634;9.516;2023-04-16T05:10:52;31.83;;;13.97;;
8337;SDS011;4206;48.634;9.516;2023-04-16T05:13:19;27.37;;;13.77;;
8337;SDS011;4206;48.634;9.516;2023-04-16T05:15:45;28.23;;;13.77;;
8337;SDS011;4206;48.634;9.516;2023-04-16T05:18:12;26.63;;;14.43;;
8337;SDS011;4206;48.634;9.516;2023-04-16T05:20:39;29.13;;;14.90;;
8337;SDS011;4206;48.634;9.516;2023-04-16T05:23:06;32.90;;;16.10;;
8337;SDS011;4206;48.634;9.516;2023-04-16T05:25:33;32.47;;;14.50;;
8337;SDS011;4206;48.634;9.516;2023-04-16T05:28:00;29.87;;;14.67;;
8337;SDS011;4206;48.634;9.516;2023-04-16T05:30:26;27.13;;;13.70;;
8337;SDS011;4206;48.634;9.516;2023-04-16T05:32:53;24.87;;;12.60;;
8337;SDS011;4206;48.634;9.516;2023-04-16T05:35:20;29.23;;;14.87;;
8337;SDS011;4206;48.634;9.516;2023-04-16T05:37:47;30.93;;;13.53;;
8337;SDS011;4206;48.634;9.516;2023-04-16T05:40:14;28.27;;;14.23;;
8337;SDS011;4206;48.634;9.516;2023-04-16T05:42:41;33.27;;;14.17;;
8337;SDS011;4206;48.634;9.516;2023-04-16T05:45:07;29.80;;;14.27;;
8337;SDS011;4206;48.634;9.516;2023-04-16T05:47:35;32.97;;;15.30;;
8337;SDS011;4206;48.634;9.516;2023-04-16T05:50:02;28.60;;;14.10;;
8337;SDS011;4206;48.634;9.516;2023-04-16T05:52:29;36.13;;;15.37;;
8337;SDS011;4206;48.634;9.516;2023-04-16T05:54:55;34.67;;;16.20;;
8337;SDS011;4206;48.634;9.516;2023-04-16T05:57:23;33.90;;;15.10;;
8337;SDS011;4206;48.634;9.516;2023-04-16T05:59:50;34.97;;;15.47;;
8337;SDS011;4206;48.634;9.516;2023-04-16T06:02:16;34.27;;;14.90;;
8337;SDS011;4206;48.634;9.516;2023-04-16T06:04:44;36.90;;;16.33;;
8337;SDS011;4206;48.634;9.516;2023-04-16T06:07:11;30.73;;;14.17;;
8337;SDS011;4206;48.634;9.516;2023-04-16T06:09:37;34.73;;;14.70;;
8337;SDS011;4206;48.634;9.516;2023-04-16T06:12:04;29.30;;;13.50;;
8337;SDS011;4206;48.634;9.516;2023-04-16T06:14:31;34.90;;;15.07;;
8337;SDS011;4206;48.634;9.516;2023-04-16T06:16:58;29.30;;;13.60;;
8337;SDS011;4206;48.634;9.516;2023-04-16T06:19:25;27.93;;;13.07;;
8337;SDS011;4206;48.634;9.516;2023-04-16T06:21:51;28.97;;;14.10;;
8337;SDS011;4206;48.634;9.516;2023-04-16T06:24:18;27.43;;;13.10;;
8337;SDS011;4206;48.634;9.516;2023-04-16T06:26:45;36.03;;;13.80;;
8337;SDS011;4206;48.634;9.516;2023-04-16T06:29:12;31.43;;;15.10;;
8337;SDS011;4206;48.634;9.516;2023-04-16T06:31:39;28.27;;;14.50;;
8337;SDS011;4206;48.634;9.516;2023-04-16T06:34:06;28.30;;;14.07;;
8337;SDS011;4206;48.634;9.516;2023-04-16T06:36:34;25.17;;;12.27;;
8337;SDS011;4206;48.634;9.516;2023-04-16T06:39:02;26.43;;;13.27;;
8337;SDS011;4206;48.634;9.516;2023-04-16T06:41:30;27.83;;;12.43;;
8337;SDS011;4206;48.634;9.516;2023-04-16T06:43:57;27.67;;;13.23;;
8337;SDS011;4206;48.634;9.516;2023-04-16T06:46:24;27.63;;;13.10;;
8337;SDS011;4206;48.634;9.516;2023-04-16T06:48:50;29.10;;;13.70;;
8337;SDS011;4206;48.634;9.516;2023-04-16T06:51:17;33.20;;;15.30;;
8337;SDS011;4206;48.634;9.516;2023-04-16T06:53:45;33.43;;;15.53;;
8337;SDS011;4206;48.634;9.516;2023-04-16T06:56:12;36.03;;;16.70;;
8337;SDS011;4206;48.634;9.516;2023-04-16T06:58:39;37.33;;;16.20;;
8337;SDS011;4206;48.634;9.516;2023-04-16T07:01:06;37.57;;;16.93;;
8337;SDS011;4206;48.634;9.516;2023-04-16T07:03:33;34.53;;;17.00;;
8337;SDS011;4206;48.634;9.516;2023-04-16T07:06:00;36.30;;;17.80;;
8337;SDS011;4206;48.634;9.516;2023-04-16T07:08:27;39.83;;;17.77;;
8337;SDS011;4206;48.634;9.516;2023-04-16T07:10:54;42.03;;;18.47;;
8337;SDS011;4206;48.634;9.516;2023-04-16T07:13:21;45.23;;;17.90;;
8337;SDS011;4206;48.634;9.516;2023-04-16T07:15:48;47.40;;;20.17;;
8337;SDS011;4206;48.634;9.516;2023-04-16T07:18:15;48.97;;;19.47;;
8337;SDS011;4206;48.634;9.516;2023-04-16T07:20:41;49.53;;;21.40;;
8337;SDS011;4206;48.634;9.516;2023-04-16T07:23:08;63.03;;;24.20;;
8337;SDS011;4206;48.634;9.516;2023-04-16T07:25:35;56.20;;;22.57;;
8337;SDS011;4206;48.634;9.516;2023-04-16T07:28:02;58.27;;;23.27;;
8337;SDS011;4206;48.634;9.516;2023-04-16T07:30:29;64.50;;;24.57;;
8337;SDS011;4206;48.634;9.516;2023-04-16T07:32:59;60.77;;;22.97;;
8337;SDS011;4206;48.634;9.516;2023-04-16T07:35:28;51.70;;;22.67;;
8337;SDS011;4206;48.634;9.516;2023-04-16T07:37:55;51.83;;;21.43;;
8337;SDS011;4206;48.634;9.516;2023-04-16T07:40:22;63.73;;;23.70;;
8337;SDS011;4206;48.634;9.516;2023-04-16T07:42:50;64.80;;;25.93;;
8337;SDS011;4206;48.634;9.516;2023-04-16T07:45:17;52.63;;;24.47;;
8337;SDS011;4206;48.634;9.516;2023-04-16T07:47:44;62.70;;;24.87;;
8337;SDS011;4206;48.634;9.516;2023-04-16T07:50:11;59.03;;;26.43;;
8337;SDS011;4206;48.634;9.516;2023-04-16T07:52:38;57.93;;;24.73;;
8337;SDS011;4206;48.634;9.516;2023-04-16T07:55:07;64.13;;;26.73;;
8337;SDS011;4206;48.634;9.516;2023-04-16T07:57:34;80.50;;;31.60;;
8337;SDS011;4206;48.634;9.516;2023-04-16T08:00:02;67.73;;;26.03;;
8337;SDS011;4206;48.634;9.516;2023-04-16T08:02:30;68.10;;;26.70;;
8337;SDS011;4206;48.634;9.516;2023-04-16T08:04:58;63.43;;;26.87;;
8337;SDS011;4206;48.634;9.516;2023-04-16T08:07:25;64.13;;;27.70;;
8337;SDS011;4206;48.634;9.516;2023-04-16T08:09:52;61.13;;;26.57;;
8337;SDS011;4206;48.634;9.516;2023-04-16T08:12:19;59.70;;;26.30;;
8337;SDS011;4206;48.634;9.516;2023-04-16T08:14:46;60.83;;;26.20;;
8337;SDS011;4206;48.634;9.516;2023-04-16T08:17:13;60.53;;;27.10;;
8337;SDS011;4206;48.634;9.516;2023-04-16T08:19:41;61.93;;;26.40;;
8337;SDS011;4206;48.634;9.516;2023-04-16T08:22:10;56.83;;;25.30;;
8337;SDS011;4206;48.634;9.516;2023-04-16T08:24:38;57.00;;;25.90;;
8337;SDS011;4206;48.634;9.516;2023-04-16T08:27:05;60.07;;;26.50;;
8337;SDS011;4206;48.634;9.516;2023-04-16T08:29:44;52.30;;;25.73;;
8337;SDS011;4206;48.634;9.516;2023-04-16T08:32:11;52.53;;;25.90;;
8337;SDS011;4206;48.634;9.516;2023-04-16T08:34:38;55.00;;;25.33;;
8337;SDS011;4206;48.634;9.516;2023-04-16T08:37:05;59.73;;;25.93;;
8337;SDS011;4206;48.634;9.516;2023-04-16T08:39:32;61.97;;;26.23;;
8337;SDS011;4206;48.634;9.516;2023-04-16T08:41:59;56.07;;;25.07;;
8337;SDS011;4206;48.634;9.516;2023-04-16T08:44:31;59.57;;;26.90;;
8337;SDS011;4206;48.634;9.516;2023-04-16T08:47:00;54.47;;;24.93;;
8337;SDS011;4206;48.634;9.516;2023-04-16T08:49:27;48.77;;;24.90;;
8337;SDS011;4206;48.634;9.516;2023-04-16T08:51:55;48.37;;;23.47;;
8337;SDS011;4206;48.634;9.516;2023-04-16T08:57:09;48.77;;;24.33;;
8337;SDS011;4206;48.634;9.516;2023-04-16T08:59:37;52.97;;;25.33;;
8337;SDS011;4206;48.634;9.516;2023-04-16T09:02:05;51.03;;;23.17;;
8337;SDS011;4206;48.634;9.516;2023-04-16T09:04:32;46.47;;;23.13;;
8337;SDS011;4206;48.634;9.516;2023-04-16T09:07:01;56.83;;;24.03;;
8337;SDS011;4206;48.634;9.516;2023-04-16T09:09:33;53.87;;;24.53;;
8337;SDS011;4206;48.634;9.516;2023-04-16T09:12:00;52.00;;;23.80;;
8337;SDS011;4206;48.634;9.516;2023-04-16T09:14:28;54.37;;;24.77;;
8337;SDS011;4206;48.634;9.516;2023-04-16T09:16:56;50.93;;;23.27;;
8337;SDS011;4206;48.634;9.516;2023-04-16T09:19:26;46.63;;;23.17;;
8337;SDS011;4206;48.634;9.516;2023-04-16T09:21:53;49.00;;;23.07;;
8337;SDS011;4206;48.634;9.516;2023-04-16T09:24:20;47.23;;;23.20;;
8337;SDS011;4206;48.634;9.516;2023-04-16T09:26:47;37.77;;;20.07;;
8337;SDS011;4206;48.634;9.516;2023-04-16T09:32:01;40.43;;;20.40;;
8337;SDS011;4206;48.634;9.516;2023-04-16T09:34:31;32.47;;;19.03;;
8337;SDS011;4206;48.634;9.516;2023-04-16T09:39:42;34.23;;;19.87;;
8337;SDS011;4206;48.634;9.516;2023-04-16T09:42:10;39.50;;;19.20;;
8337;SDS011;4206;48.634;9.516;2023-04-16T09:44:37;39.80;;;19.27;;
8337;SDS011;4206;48.634;9.516;2023-04-16T09:47:05;34.57;;;18.30;;
8337;SDS011;4206;48.634;9.516;2023-04-16T09:49:34;34.13;;;18.50;;
8337;SDS011;4206;48.634;9.516;2023-04-16T09:52:08;43.73;;;21.83;;
8337;SDS011;4206;48.634;9.516;2023-04-16T09:54:44;39.03;;;21.30;;
8337;SDS011;4206;48.634;9.516;2023-04-16T09:57:12;35.87;;;18.73;;
8337;SDS011;4206;48.634;9.516;2023-04-16T09:59:41;35.10;;;19.60;;
8337;SDS011;4206;48.634;9.516;2023-04-16T10:02:08;29.30;;;18.67;;
8337;SDS011;4206;48.634;9.516;2023-04-16T10:04:44;38.20;;;19.83;;
8337;SDS011;4206;48.634;9.516;2023-04-16T10:07:12;36.17;;;19.17;;
8337;SDS011;4206;48.634;9.516;2023-04-16T10:09:39;34.93;;;19.40;;
8337;SDS011;4206;48.634;9.516;2023-04-16T10:12:07;36.00;;;19.03;;
8337;SDS011;4206;48.634;9.516;2023-04-16T10:14:34;31.47;;;18.70;;
8337;SDS011;4206;48.634;9.516;2023-04-16T10:17:02;33.40;;;18.70;;
8337;SDS011;4206;48.634;9.516;2023-04-16T10:19:29;35.23;;;20.17;;
8337;SDS011;4206;48.634;9.516;2023-04-16T10:21:58;39.90;;;20.43;;
8337;SDS011;4206;48.634;9.516;2023-04-16T10:24:25;39.47;;;19.70;;
8337;SDS011;4206;48.634;9.516;2023-04-16T10:26:52;34.53;;;19.70;;
8337;SDS011;4206;48.634;9.516;2023-04-16T10:29:20;34.47;;;18.53;;
8337;SDS011;4206;48.634;9.516;2023-04-16T10:31:48;36.20;;;18.70;;
8337;SDS011;4206;48.634;9.516;2023-04-16T10:34:16;35.87;;;18.27;;
8337;SDS011;4206;48.634;9.516;2023-04-16T10:36:47;37.50;;;19.27;;
8337;SDS011;4206;48.634;9.516;2023-04-16T10:39:18;35.80;;;19.77;;
8337;SDS011;4206;48.634;9.516;2023-04-16T10:41:46;34.43;;;19.00;;
8337;SDS011;4206;48.634;9.516;2023-04-16T10:44:15;39.63;;;21.60;;
8337;SDS011;4206;48.634;9.516;2023-04-16T10:46:45;41.00;;;21.50;;
8337;SDS011;4206;48.634;9.516;2023-04-16T10:49:18;38.13;;;18.20;;
8337;SDS011;4206;48.634;9.516;2023-04-16T10:51:57;34.77;;;18.97;;
8337;SDS011;4206;48.634;9.516;2023-04-16T10:54:28;40.60;;;19.07;;
8337;SDS011;4206;48.634;9.516;2023-04-16T10:56:56;31.70;;;18.67;;
8337;SDS011;4206;48.634;9.516;2023-04-16T10:59:29;36.03;;;18.70;;
8337;SDS011;4206;48.634;9.516;2023-04-16T11:01:58;44.10;;;18.87;;
8337;SDS011;4206;48.634;9.516;2023-04-16T11:04:28;39.53;;;19.60;;
8337;SDS011;4206;48.634;9.516;2023-04-16T11:14:58;38.60;;;18.10;;
8337;SDS011;4206;48.634;9.516;2023-04-16T11:17:30;37.60;;;18.13;;
8337;SDS011;4206;48.634;9.516;2023-04-16T11:20:03;34.53;;;16.40;;
8337;SDS011;4206;48.634;9.516;2023-04-16T11:22:45;39.50;;;18.23;;
8337;SDS011;4206;48.634;9.516;2023-04-16T11:25:12;35.00;;;17.10;;
8337;SDS011;4206;48.634;9.516;2023-04-16T11:27:44;38.57;;;17.33;;
8337;SDS011;4206;48.634;9.516;2023-04-16T11:30:11;45.53;;;18.63;;
8337;SDS011;4206;48.634;9.516;2023-04-16T11:32:38;33.97;;;16.23;;
8337;SDS011;4206;48.634;9.516;2023-04-16T11:35:14;45.57;;;20.17;;
8337;SDS011;4206;48.634;9.516;2023-04-16T11:37:42;33.97;;;18.80;;
8337;SDS011;4206;48.634;9.516;2023-04-16T11:40:09;36.80;;;19.40;;
8337;SDS011;4206;48.634;9.516;2023-04-16T11:42:37;37.10;;;17.90;;
8337;SDS011;4206;48.634;9.516;2023-04-16T11:45:07;40.73;;;18.43;;
8337;SDS011;4206;48.634;9.516;2023-04-16T11:50:22;36.77;;;18.73;;
8337;SDS011;4206;48.634;9.516;2023-04-16T11:52:51;32.23;;;17.23;;
8337;SDS011;4206;48.634;9.516;2023-04-16T11:55:19;33.23;;;16.13;;
8337;SDS011;4206;48.634;9.516;2023-04-16T11:57:47;32.60;;;16.20;;
8337;SDS011;4206;48.634;9.516;2023-04-16T12:00:16;30.30;;;14.03;;
8337;SDS011;4206;48.634;9.516;2023-04-16T12:02:44;35.47;;;16.60;;
8337;SDS011;4206;48.634;9.516;2023-04-16T12:08:04;37.87;;;16.67;;
8337;SDS011;4206;48.634;9.516;2023-04-16T12:10:34;33.73;;;14.53;;
8337;SDS011;4206;48.634;9.516;2023-04-16T12:15:46;31.27;;;14.03;;
8337;SDS011;4206;48.634;9.516;2023-04-16T12:18:14;28.53;;;14.90;;
8337;SDS011;4206;48.634;9.516;2023-04-16T12:20:42;28.73;;;15.00;;
8337;SDS011;4206;48.634;9.516;2023-04-16T12:25:54;28.50;;;14.33;;
8337;SDS011;4206;48.634;9.516;2023-04-16T12:31:04;30.47;;;15.40;;
8337;SDS011;4206;48.634;9.516;2023-04-16T12:33:31;24.10;;;12.40;;
8337;SDS011;4206;48.634;9.516;2023-04-16T12:35:58;22.83;;;13.03;;
8337;SDS011;4206;48.634;9.516;2023-04-16T12:38:27;27.10;;;14.00;;
8337;SDS011;4206;48.634;9.516;2023-04-16T12:40:54;27.20;;;14.00;;
8337;SDS011;4206;48.634;9.516;2023-04-16T12:43:23;24.67;;;12.60;;
8337;SDS011;4206;48.634;9.516;2023-04-16T12:45:50;22.10;;;11.37;;
8337;SDS011;4206;48.634;9.516;2023-04-16T12:48:17;23.03;;;10.97;;
8337;SDS011;4206;48.634;9.516;2023-04-16T12:50:44;21.17;;;10.20;;
8337;SDS011;4206;48.634;9.516;2023-04-16T12:53:11;20.07;;;10.73;;
8337;SDS011;4206;48.634;9.516;2023-04-16T12:55:38;18.70;;;11.37;;
8337;SDS011;4206;48.634;9.516;2023-04-16T12:58:04;18.30;;;9.83;;
8337;SDS011;4206;48.634;9.516;2023-04-16T13:00:32;17.07;;;10.60;;
8337;SDS011;4206;48.634;9.516;2023-04-16T13:02:58;14.57;;;8.70;;
8337;SDS011;4206;48.634;9.516;2023-04-16T13:05:25;16.23;;;8.20;;
8337;SDS011;4206;48.634;9.516;2023-04-16T13:07:52;17.33;;;7.73;;
8337;SDS011;4206;48.634;9.516;2023-04-16T13:10:20;16.50;;;8.33;;
8337;SDS011;4206;48.634;9.516;2023-04-16T13:12:47;15.47;;;7.80;;
8337;SDS011;4206;48.634;9.516;2023-04-16T13:15:14;12.43;;;7.83;;
8337;SDS011;4206;48.634;9.516;2023-04-16T13:17:41;13.43;;;7.87;;
8337;SDS011;4206;48.634;9.516;2023-04-16T13:20:08;17.00;;;8.73;;
8337;SDS011;4206;48.634;9.516;2023-04-16T13:22:36;15.93;;;8.13;;
8337;SDS011;4206;48.634;9.516;2023-04-16T13:25:03;17.63;;;8.90;;
8337;SDS011;4206;48.634;9.516;2023-04-16T13:27:30;14.57;;;8.50;;
8337;SDS011;4206;48.634;9.516;2023-04-16T13:29:57;14.60;;;8.50;;
8337;SDS011;4206;48.634;9.516;2023-04-16T13:32:24;13.23;;;7.70;;
8337;SDS011;4206;48.634;9.516;2023-04-16T13:34:51;12.63;;;8.23;;
8337;SDS011;4206;48.634;9.516;2023-04-16T13:37:18;18.43;;;10.93;;
8337;SDS011;4206;48.634;9.516;2023-04-16T13:39:45;14.00;;;7.40;;
8337;SDS011;4206;48.634;9.516;2023-04-16T13:42:12;12.77;;;8.10;;
8337;SDS011;4206;48.634;9.516;2023-04-16T13:44:39;13.37;;;7.10;;
8337;SDS011;4206;48.634;9.516;2023-04-16T13:47:06;12.40;;;7.40;;
8337;SDS011;4206;48.634;9.516;2023-04-16T13:49:33;13.00;;;7.50;;
8337;SDS011;4206;48.634;9.516;2023-04-16T13:52:01;14.03;;;8.20;;
8337;SDS011;4206;48.634;9.516;2023-04-16T13:54:29;13.20;;;8.50;;
8337;SDS011;4206;48.634;9.516;2023-04-16T13:56:56;16.37;;;8.20;;
8337;SDS011;4206;48.634;9.516;2023-04-16T13:59:23;13.70;;;7.53;;
8337;SDS011;4206;48.634;9.516;2023-04-16T14:01:50;12.33;;;8.37;;
8337;SDS011;4206;48.634;9.516;2023-04-16T14:04:17;14.63;;;9.07;;
8337;SDS011;4206;48.634;9.516;2023-04-16T14:06:44;11.13;;;7.87;;
8337;SDS011;4206;48.634;9.516;2023-04-16T14:09:11;13.77;;;7.40;;
8337;SDS011;4206;48.634;9.516;2023-04-16T14:11:38;12.10;;;7.97;;
8337;SDS011;4206;48.634;9.516;2023-04-16T14:14:05;14.97;;;8.10;;
8337;SDS011;4206;48.634;9.516;2023-04-16T14:16:33;13.63;;;8.60;;
8337;SDS011;4206;48.634;9.516;2023-04-16T14:19:00;10.30;;;7.60;;
8337;SDS011;4206;48.634;9.516;2023-04-16T14:21:28;13.63;;;8.30;;
8337;SDS011;4206;48.634;9.516;2023-04-16T14:23:56;13.70;;;8.10;;
8337;SDS011;4206;48.634;9.516;2023-04-16T14:26:23;15.27;;;9.00;;
8337;SDS011;4206;48.634;9.516;2023-04-16T14:28:50;18.60;;;9.90;;
8337;SDS011;4206;48.634;9.516;2023-04-16T14:31:17;14.80;;;8.63;;
8337;SDS011;4206;48.634;9.516;2023-04-16T14:33:45;15.20;;;8.57;;
8337;SDS011;4206;48.634;9.516;2023-04-16T14:36:12;16.30;;;9.90;;
8337;SDS011;4206;48.634;9.516;2023-04-16T14:38:39;15.53;;;10.00;;
8337;SDS011;4206;48.634;9.516;2023-04-16T14:41:08;15.60;;;9.80;;
8337;SDS011;4206;48.634;9.516;2023-04-16T14:43:37;17.93;;;8.87;;
8337;SDS011;4206;48.634;9.516;2023-04-16T14:46:05;14.60;;;9.07;;
8337;SDS011;4206;48.634;9.516;2023-04-16T14:48:32;21.47;;;9.67;;
8337;SDS011;4206;48.634;9.516;2023-04-16T14:50:59;25.83;;;11.57;;
8337;SDS011;4206;48.634;9.516;2023-04-16T14:53:26;21.23;;;10.80;;
8337;SDS011;4206;48.634;9.516;2023-04-16T14:55:54;17.53;;;10.73;;
8337;SDS011;4206;48.634;9.516;2023-04-16T14:58:24;19.10;;;10.83;;
8337;SDS011;4206;48.634;9.516;2023-04-16T15:00:51;22.53;;;11.77;;
8337;SDS011;4206;48.634;9.516;2023-04-16T15:03:18;17.10;;;10.40;;
8337;SDS011;4206;48.634;9.516;2023-04-16T15:05:46;18.23;;;11.57;;
8337;SDS011;4206;48.634;9.516;2023-04-16T15:08:20;20.00;;;11.13;;
8337;SDS011;4206;48.634;9.516;2023-04-16T15:10:48;19.30;;;10.90;;
8337;SDS011;4206;48.634;9.516;2023-04-16T15:13:16;19.70;;;11.40;;
8337;SDS011;4206;48.634;9.516;2023-04-16T15:15:43;18.93;;;11.40;;
8337;SDS011;4206;48.634;9.516;2023-04-16T15:18:10;25.00;;;13.33;;
8337;SDS011;4206;48.634;9.516;2023-04-16T15:20:37;22.97;;;13.27;;
8337;SDS011;4206;48.634;9.516;2023-04-16T15:23:03;25.20;;;12.90;;
8337;SDS011;4206;48.634;9.516;2023-04-16T15:25:31;26.07;;;13.70;;
8337;SDS011;4206;48.634;9.516;2023-04-16T15:27:57;22.60;;;12.77;;
8337;SDS011;4206;48.634;9.516;2023-04-16T15:30:24;19.47;;;12.07;;
8337;SDS011;4206;48.634;9.516;2023-04-16T15:32:51;22.13;;;11.57;;
8337;SDS011;4206;48.634;9.516;2023-04-16T15:35:20;26.30;;;14.43;;
8337;SDS011;4206;48.634;9.516;2023-04-16T15:37:47;25.17;;;13.30;;
8337;SDS011;4206;48.634;9.516;2023-04-16T15:40:14;28.70;;;15.57;;
8337;SDS011;4206;48.634;9.516;2023-04-16T15:42:43;29.00;;;14.73;;
8337;SDS011;4206;48.634;9.516;2023-04-16T15:45:10;28.30;;;14.53;;
8337;SDS011;4206;48.634;9.516;2023-04-16T15:47:37;27.37;;;15.07;;
8337;SDS011;4206;48.634;9.516;2023-04-16T15:50:07;32.33;;;16.23;;
8337;SDS011;4206;48.634;9.516;2023-04-16T15:52:34;29.13;;;14.20;;
8337;SDS011;4206;48.634;9.516;2023-04-16T15:55:01;30.27;;;15.10;;
8337;SDS011;4206;48.634;9.516;2023-04-16T15:57:29;34.63;;;16.23;;
8337;SDS011;4206;48.634;9.516;2023-04-16T15:59:56;30.90;;;16.57;;
8337;SDS011;4206;48.634;9.516;2023-04-16T16:02:26;38.90;;;17.03;;
8337;SDS011;4206;48.634;9.516;2023-04-16T16:04:55;33.00;;;16.30;;
8337;SDS011;4206;48.634;9.516;2023-04-16T16:07:22;29.50;;;16.47;;
8337;SDS011;4206;48.634;9.516;2023-04-16T16:09:50;33.00;;;16.70;;
8337;SDS011;4206;48.634;9.516;2023-04-16T16:12:18;45.97;;;17.50;;
8337;SDS011;4206;48.634;9.516;2023-04-16T16:14:45;34.90;;;15.50;;
8337;SDS011;4206;48.634;9.516;2023-04-16T16:17:12;37.97;;;18.00;;
8337;SDS011;4206;48.634;9.516;2023-04-16T16:19:40;33.67;;;17.97;;
8337;SDS011;4206;48.634;9.516;2023-04-16T16:22:07;34.17;;;17.07;;
8337;SDS011;4206;48.634;9.516;2023-04-16T16:24:35;36.23;;;16.80;;
8337;SDS011;4206;48.634;9.516;2023-04-16T16:27:02;34.50;;;17.37;;